sensor_id;sensor_type;location;lat;lon;timestamp;P1;durP1;ratioP1;P2;durP2;ratioP2
15667;SDS011;7934;48.710;9.024;2024-01-10T00:00:16;22.17;;;10.47;;
15667;SDS011;7934;48.710;9.024;2024-01-10T00:05:43;27.53;;;9.93;;
15667;SDS011;7934;48.710;9.024;2024-01-10T00:08:11;18.50;;;9.50;;
15667;SDS011;7934;48.710;9.024;2024-01-10T00:10:39;18.50;;;9.40;;
15667;SDS011;7934;48.710;9.024;2024-01-10T00:13:07;20.77;;;9.90;;
15667;SDS011;7934;48.710;9.024;2024-01-10T00:15:34;21.50;;;10.13;;
15667;SDS011;7934;48.710;9.024;2024-01-10T00:18:02;22.23;;;10.13;;
15667;SDS011;7934;48.710;9.024;2024-01-10T00:20:29;20.03;;;9.87;;
15667;SDS011;7934;48.710;9.024;2024-01-10T00:22:58;22.70;;;9.97;;
15667;SDS011;7934;48.710;9.024;2024-01-10T00:25:32;20.03;;;10.00;;
15667;SDS011;7934;48.710;9.024;2024-01-10T00:28:23;20.50;;;9.97;;
15667;SDS011;7934;48.710;9.024;2024-01-10T00:30:54;21.67;;;9.27;;
15667;SDS011;7934;48.710;9.024;2024-01-10T00:36:20;17.70;;;9.47;;
15667;SDS011;7934;48.710;9.024;2024-01-10T00:38:53;16.90;;;8.90;;
15667;SDS011;7934;48.710;9.024;2024-01-10T00:41:23;19.97;;;9.83;;
15667;SDS011;7934;48.710;9.024;2024-01-10T00:43:50;25.50;;;10.30;;
15667;SDS011;7934;48.710;9.024;2024-01-10T00:46:17;23.70;;;10.00;;
15667;SDS011;7934;48.710;9.024;2024-01-10T00:51:40;18.23;;;8.63;;
15667;SDS011;7934;48.710;9.024;2024-01-10T00:54:11;20.63;;;9.93;;
15667;SDS011;7934;48.710;9.024;2024-01-10T00:56:38;29.53;;;10.63;;
15667;SDS011;7934;48.710;9.024;2024-01-10T00:59:07;18.90;;;9.27;;
15667;SDS011;7934;48.710;9.024;2024-01-10T01:01:36;21.57;;;9.37;;
15667;SDS011;7934;48.710;9.024;2024-01-10T01:04:06;23.33;;;10.37;;
15667;SDS011;7934;48.710;9.024;2024-01-10T01:06:35;15.93;;;9.27;;
15667;SDS011;7934;48.710;9.024;2024-01-10T01:09:02;19.53;;;9.83;;
15667;SDS011;7934;48.710;9.024;2024-01-10T01:11:31;18.33;;;9.77;;
15667;SDS011;7934;48.710;9.024;2024-01-10T01:14:03;24.73;;;11.17;;
15667;SDS011;7934;48.710;9.024;2024-01-10T01:16:30;18.47;;;10.30;;
15667;SDS011;7934;48.710;9.024;2024-01-10T01:21:35;18.97;;;9.77;;
15667;SDS011;7934;48.710;9.024;2024-01-10T01:24:05;23.13;;;11.17;;
15667;SDS011;7934;48.710;9.024;2024-01-10T01:29:04;25.00;;;10.93;;
15667;SDS011;7934;48.710;9.024;2024-01-10T01:31:33;19.70;;;9.53;;
15667;SDS011;7934;48.710;9.024;2024-01-10T01:34:02;20.97;;;10.67;;
15667;SDS011;7934;48.710;9.024;2024-01-10T01:36:29;23.33;;;10.43;;
15667;SDS011;7934;48.710;9.024;2024-01-10T01:38:56;22.17;;;10.10;;
15667;SDS011;7934;48.710;9.024;2024-01-10T01:41:23;18.13;;;9.83;;
15667;SDS011;7934;48.710;9.024;2024-01-10T01:43:50;18.90;;;9.87;;
15667;SDS011;7934;48.710;9.024;2024-01-10T01:46:19;19.27;;;9.20;;
15667;SDS011;7934;48.710;9.024;2024-01-10T01:48:47;25.53;;;10.97;;
15667;SDS011;7934;48.710;9.024;2024-01-10T01:51:14;23.87;;;10.90;;
15667;SDS011;7934;48.710;9.024;2024-01-10T01:53:42;22.60;;;10.67;;
15667;SDS011;7934;48.710;9.024;2024-01-10T01:56:11;25.23;;;10.93;;
15667;SDS011;7934;48.710;9.024;2024-01-10T01:58:41;21.50;;;11.03;;
15667;SDS011;7934;48.710;9.024;2024-01-10T02:01:09;20.77;;;10.70;;
15667;SDS011;7934;48.710;9.024;2024-01-10T02:03:38;23.43;;;10.67;;
15667;SDS011;7934;48.710;9.024;2024-01-10T02:06:05;18.37;;;9.37;;
15667;SDS011;7934;48.710;9.024;2024-01-10T02:08:33;23.33;;;11.47;;
15667;SDS011;7934;48.710;9.024;2024-01-10T02:11:01;17.63;;;9.90;;
15667;SDS011;7934;48.710;9.024;2024-01-10T02:13:28;18.63;;;9.40;;
15667;SDS011;7934;48.710;9.024;2024-01-10T02:15:56;20.90;;;9.50;;
15667;SDS011;7934;48.710;9.024;2024-01-10T02:18:24;18.27;;;10.07;;
15667;SDS011;7934;48.710;9.024;2024-01-10T02:20:52;21.23;;;10.30;;
15667;SDS011;7934;48.710;9.024;2024-01-10T02:23:19;20.93;;;9.57;;
15667;SDS011;7934;48.710;9.024;2024-01-10T02:25:48;18.27;;;9.83;;
15667;SDS011;7934;48.710;9.024;2024-01-10T02:28:15;22.17;;;10.97;;
15667;SDS011;7934;48.710;9.024;2024-01-10T02:30:43;24.07;;;10.03;;
15667;SDS011;7934;48.710;9.024;2024-01-10T02:33:12;24.40;;;11.10;;
15667;SDS011;7934;48.710;9.024;2024-01-10T02:35:39;25.37;;;10.20;;
15667;SDS011;7934;48.710;9.024;2024-01-10T02:38:06;17.20;;;9.97;;
15667;SDS011;7934;48.710;9.024;2024-01-10T02:40:33;18.27;;;9.87;;
15667;SDS011;7934;48.710;9.024;2024-01-10T02:43:02;19.00;;;9.80;;
15667;SDS011;7934;48.710;9.024;2024-01-10T02:45:29;22.50;;;10.20;;
15667;SDS011;7934;48.710;9.024;2024-01-10T02:47:56;22.53;;;10.73;;
15667;SDS011;7934;48.710;9.024;2024-01-10T02:50:23;22.73;;;10.90;;
15667;SDS011;7934;48.710;9.024;2024-01-10T02:52:50;19.80;;;9.83;;
15667;SDS011;7934;48.710;9.024;2024-01-10T02:55:18;19.57;;;10.00;;
15667;SDS011;7934;48.710;9.024;2024-01-10T02:57:45;18.40;;;10.20;;
15667;SDS011;7934;48.710;9.024;2024-01-10T03:00:13;24.63;;;11.30;;
15667;SDS011;7934;48.710;9.024;2024-01-10T03:02:41;21.47;;;10.23;;
15667;SDS011;7934;48.710;9.024;2024-01-10T03:05:08;16.97;;;9.33;;
15667;SDS011;7934;48.710;9.024;2024-01-10T03:07:35;21.83;;;10.30;;
15667;SDS011;7934;48.710;9.024;2024-01-10T03:10:03;25.63;;;10.30;;
15667;SDS011;7934;48.710;9.024;2024-01-10T03:12:30;20.80;;;10.27;;
15667;SDS011;7934;48.710;9.024;2024-01-10T03:14:57;24.07;;;10.67;;
15667;SDS011;7934;48.710;9.024;2024-01-10T03:17:26;24.73;;;10.33;;
15667;SDS011;7934;48.710;9.024;2024-01-10T03:19:54;22.33;;;10.87;;
15667;SDS011;7934;48.710;9.024;2024-01-10T03:22:21;21.50;;;10.17;;
15667;SDS011;7934;48.710;9.024;2024-01-10T03:24:48;22.90;;;10.10;;
15667;SDS011;7934;48.710;9.024;2024-01-10T03:27:15;20.63;;;10.17;;
15667;SDS011;7934;48.710;9.024;2024-01-10T03:29:43;19.97;;;10.53;;
15667;SDS011;7934;48.710;9.024;2024-01-10T03:32:10;22.17;;;9.90;;
15667;SDS011;7934;48.710;9.024;2024-01-10T03:34:40;20.67;;;9.47;;
15667;SDS011;7934;48.710;9.024;2024-01-10T03:37:08;20.93;;;9.47;;
15667;SDS011;7934;48.710;9.024;2024-01-10T03:39:37;21.10;;;10.07;;
15667;SDS011;7934;48.710;9.024;2024-01-10T03:42:05;21.83;;;10.30;;
15667;SDS011;7934;48.710;9.024;2024-01-10T03:44:32;21.77;;;10.60;;
15667;SDS011;7934;48.710;9.024;2024-01-10T03:46:59;20.33;;;9.87;;
15667;SDS011;7934;48.710;9.024;2024-01-10T03:49:25;20.10;;;9.53;;
15667;SDS011;7934;48.710;9.024;2024-01-10T03:51:54;26.67;;;11.30;;
15667;SDS011;7934;48.710;9.024;2024-01-10T03:54:21;21.23;;;10.60;;
15667;SDS011;7934;48.710;9.024;2024-01-10T03:56:48;23.20;;;9.77;;
15667;SDS011;7934;48.710;9.024;2024-01-10T03:59:15;21.67;;;11.47;;
15667;SDS011;7934;48.710;9.024;2024-01-10T04:01:43;19.77;;;9.83;;
15667;SDS011;7934;48.710;9.024;2024-01-10T04:04:10;24.67;;;10.40;;
15667;SDS011;7934;48.710;9.024;2024-01-10T04:06:37;21.57;;;10.47;;
15667;SDS011;7934;48.710;9.024;2024-01-10T04:09:06;26.10;;;11.93;;
15667;SDS011;7934;48.710;9.024;2024-01-10T04:11:34;23.07;;;10.17;;
15667;SDS011;7934;48.710;9.024;2024-01-10T04:14:02;26.00;;;11.17;;
15667;SDS011;7934;48.710;9.024;2024-01-10T04:16:30;29.10;;;10.60;;
15667;SDS011;7934;48.710;9.024;2024-01-10T04:18:58;21.23;;;10.73;;
15667;SDS011;7934;48.710;9.024;2024-01-10T04:21:28;21.73;;;12.10;;
15667;SDS011;7934;48.710;9.024;2024-01-10T04:24:00;19.93;;;10.43;;
15667;SDS011;7934;48.710;9.024;2024-01-10T04:26:29;20.43;;;10.27;;
15667;SDS011;7934;48.710;9.024;2024-01-10T04:28:57;23.20;;;10.90;;
15667;SDS011;7934;48.710;9.024;2024-01-10T04:31:24;24.00;;;10.93;;
15667;SDS011;7934;48.710;9.024;2024-01-10T04:33:53;22.10;;;11.17;;
15667;SDS011;7934;48.710;9.024;2024-01-10T04:36:20;20.63;;;10.37;;
15667;SDS011;7934;48.710;9.024;2024-01-10T04:38:47;23.87;;;12.03;;
15667;SDS011;7934;48.710;9.024;2024-01-10T04:41:15;22.87;;;11.83;;
15667;SDS011;7934;48.710;9.024;2024-01-10T04:43:43;20.03;;;10.87;;
15667;SDS011;7934;48.710;9.024;2024-01-10T04:46:10;26.63;;;12.00;;
15667;SDS011;7934;48.710;9.024;2024-01-10T04:48:38;21.67;;;11.30;;
15667;SDS011;7934;48.710;9.024;2024-01-10T04:51:05;24.83;;;11.57;;
15667;SDS011;7934;48.710;9.024;2024-01-10T04:53:32;24.50;;;12.10;;
15667;SDS011;7934;48.710;9.024;2024-01-10T04:55:59;22.93;;;11.00;;
15667;SDS011;7934;48.710;9.024;2024-01-10T04:58:26;33.60;;;11.67;;
15667;SDS011;7934;48.710;9.024;2024-01-10T05:00:56;21.53;;;11.00;;
15667;SDS011;7934;48.710;9.024;2024-01-10T05:03:23;21.87;;;11.40;;
15667;SDS011;7934;48.710;9.024;2024-01-10T05:05:50;23.90;;;11.23;;
15667;SDS011;7934;48.710;9.024;2024-01-10T05:08:17;28.70;;;12.70;;
15667;SDS011;7934;48.710;9.024;2024-01-10T05:10:46;28.67;;;12.20;;
15667;SDS011;7934;48.710;9.024;2024-01-10T05:13:16;21.47;;;11.03;;
15667;SDS011;7934;48.710;9.024;2024-01-10T05:15:43;24.03;;;11.70;;
15667;SDS011;7934;48.710;9.024;2024-01-10T05:18:12;26.17;;;12.37;;
15667;SDS011;7934;48.710;9.024;2024-01-10T05:20:41;23.43;;;12.17;;
15667;SDS011;7934;48.710;9.024;2024-01-10T05:23:08;26.70;;;12.13;;
15667;SDS011;7934;48.710;9.024;2024-01-10T05:25:36;23.23;;;11.60;;
15667;SDS011;7934;48.710;9.024;2024-01-10T05:28:03;24.97;;;12.07;;
15667;SDS011;7934;48.710;9.024;2024-01-10T05:30:31;29.00;;;11.37;;
15667;SDS011;7934;48.710;9.024;2024-01-10T05:33:02;31.93;;;11.47;;
15667;SDS011;7934;48.710;9.024;2024-01-10T05:41:24;29.00;;;12.27;;
15667;SDS011;7934;48.710;9.024;2024-01-10T05:43:54;29.30;;;12.17;;
15667;SDS011;7934;48.710;9.024;2024-01-10T05:46:24;22.23;;;11.40;;
15667;SDS011;7934;48.710;9.024;2024-01-10T05:48:53;27.50;;;11.57;;
15667;SDS011;7934;48.710;9.024;2024-01-10T05:51:20;23.43;;;10.97;;
15667;SDS011;7934;48.710;9.024;2024-01-10T05:53:49;25.33;;;12.43;;
15667;SDS011;7934;48.710;9.024;2024-01-10T05:56:16;26.97;;;12.20;;
15667;SDS011;7934;48.710;9.024;2024-01-10T05:58:45;23.13;;;12.57;;
15667;SDS011;7934;48.710;9.024;2024-01-10T06:01:16;28.80;;;12.97;;
15667;SDS011;7934;48.710;9.024;2024-01-10T06:03:43;25.90;;;12.40;;
15667;SDS011;7934;48.710;9.024;2024-01-10T06:06:15;23.63;;;12.13;;
15667;SDS011;7934;48.710;9.024;2024-01-10T06:08:44;28.53;;;12.37;;
15667;SDS011;7934;48.710;9.024;2024-01-10T06:11:11;23.90;;;12.20;;
15667;SDS011;7934;48.710;9.024;2024-01-10T06:13:40;25.97;;;12.43;;
15667;SDS011;7934;48.710;9.024;2024-01-10T06:16:09;28.47;;;12.97;;
15667;SDS011;7934;48.710;9.024;2024-01-10T06:18:38;31.33;;;13.47;;
15667;SDS011;7934;48.710;9.024;2024-01-10T06:21:05;29.90;;;12.67;;
15667;SDS011;7934;48.710;9.024;2024-01-10T06:23:32;30.97;;;13.10;;
15667;SDS011;7934;48.710;9.024;2024-01-10T06:26:00;26.80;;;12.63;;
15667;SDS011;7934;48.710;9.024;2024-01-10T06:28:29;28.07;;;11.87;;
15667;SDS011;7934;48.710;9.024;2024-01-10T06:30:56;24.13;;;12.47;;
15667;SDS011;7934;48.710;9.024;2024-01-10T06:33:25;29.53;;;13.27;;
15667;SDS011;7934;48.710;9.024;2024-01-10T06:35:54;25.57;;;13.40;;
15667;SDS011;7934;48.710;9.024;2024-01-10T06:38:21;27.13;;;13.87;;
15667;SDS011;7934;48.710;9.024;2024-01-10T06:40:49;30.57;;;12.57;;
15667;SDS011;7934;48.710;9.024;2024-01-10T06:43:16;31.80;;;13.60;;
15667;SDS011;7934;48.710;9.024;2024-01-10T06:45:43;30.37;;;12.80;;
15667;SDS011;7934;48.710;9.024;2024-01-10T06:48:11;32.17;;;13.37;;
15667;SDS011;7934;48.710;9.024;2024-01-10T06:50:40;30.03;;;12.97;;
15667;SDS011;7934;48.710;9.024;2024-01-10T06:53:07;28.30;;;13.47;;
15667;SDS011;7934;48.710;9.024;2024-01-10T06:55:34;31.10;;;13.67;;
15667;SDS011;7934;48.710;9.024;2024-01-10T06:58:02;27.97;;;13.53;;
15667;SDS011;7934;48.710;9.024;2024-01-10T07:00:29;31.17;;;13.63;;
15667;SDS011;7934;48.710;9.024;2024-01-10T07:02:56;26.63;;;13.67;;
15667;SDS011;7934;48.710;9.024;2024-01-10T07:05:27;30.27;;;12.53;;
15667;SDS011;7934;48.710;9.024;2024-01-10T07:07:58;24.67;;;12.00;;
15667;SDS011;7934;48.710;9.024;2024-01-10T07:10:27;35.80;;;18.15;;
15667;SDS011;7934;48.710;9.024;2024-01-10T07:12:56;32.77;;;15.07;;
15667;SDS011;7934;48.710;9.024;2024-01-10T07:15:24;31.87;;;14.27;;
15667;SDS011;7934;48.710;9.024;2024-01-10T07:17:51;33.27;;;12.93;;
15667;SDS011;7934;48.710;9.024;2024-01-10T07:20:18;32.92;;;14.13;;
15667;SDS011;7934;48.710;9.024;2024-01-10T07:22:45;28.87;;;13.90;;
15667;SDS011;7934;48.710;9.024;2024-01-10T07:25:15;31.10;;;13.60;;
15667;SDS011;7934;48.710;9.024;2024-01-10T07:27:53;27.33;;;12.93;;
15667;SDS011;7934;48.710;9.024;2024-01-10T07:30:32;29.10;;;12.50;;
15667;SDS011;7934;48.710;9.024;2024-01-10T07:33:00;31.00;;;13.53;;
15667;SDS011;7934;48.710;9.024;2024-01-10T07:35:27;29.97;;;13.07;;
15667;SDS011;7934;48.710;9.024;2024-01-10T07:37:55;27.87;;;12.73;;
15667;SDS011;7934;48.710;9.024;2024-01-10T07:40:26;29.07;;;13.27;;
15667;SDS011;7934;48.710;9.024;2024-01-10T07:43:01;27.57;;;12.83;;
15667;SDS011;7934;48.710;9.024;2024-01-10T07:45:28;29.57;;;12.57;;
15667;SDS011;7934;48.710;9.024;2024-01-10T07:47:55;29.37;;;14.23;;
15667;SDS011;7934;48.710;9.024;2024-01-10T07:50:23;35.63;;;14.43;;
15667;SDS011;7934;48.710;9.024;2024-01-10T07:53:01;31.33;;;14.70;;
15667;SDS011;7934;48.710;9.024;2024-01-10T07:55:30;31.97;;;14.77;;
15667;SDS011;7934;48.710;9.024;2024-01-10T07:57:57;47.27;;;16.73;;
15667;SDS011;7934;48.710;9.024;2024-01-10T08:00:29;44.50;;;16.13;;
15667;SDS011;7934;48.710;9.024;2024-01-10T08:02:56;44.13;;;17.20;;
15667;SDS011;7934;48.710;9.024;2024-01-10T08:05:24;44.13;;;17.00;;
15667;SDS011;7934;48.710;9.024;2024-01-10T08:07:50;43.93;;;18.10;;
15667;SDS011;7934;48.710;9.024;2024-01-10T08:10:17;43.50;;;16.60;;
15667;SDS011;7934;48.710;9.024;2024-01-10T08:12:46;34.97;;;15.53;;
15667;SDS011;7934;48.710;9.024;2024-01-10T08:15:14;27.00;;;15.23;;
15667;SDS011;7934;48.710;9.024;2024-01-10T08:17:41;34.23;;;15.53;;
15667;SDS011;7934;48.710;9.024;2024-01-10T08:20:09;33.17;;;15.63;;
15667;SDS011;7934;48.710;9.024;2024-01-10T08:22:39;33.23;;;16.47;;
15667;SDS011;7934;48.710;9.024;2024-01-10T08:25:09;33.17;;;14.97;;
15667;SDS011;7934;48.710;9.024;2024-01-10T08:27:37;27.10;;;15.00;;
15667;SDS011;7934;48.710;9.024;2024-01-10T08:30:07;22.97;;;14.27;;
15667;SDS011;7934;48.710;9.024;2024-01-10T08:32:35;27.73;;;14.93;;
15667;SDS011;7934;48.710;9.024;2024-01-10T08:35:12;30.87;;;16.07;;
15667;SDS011;7934;48.710;9.024;2024-01-10T08:40:19;30.30;;;15.93;;
15667;SDS011;7934;48.710;9.024;2024-01-10T08:42:50;28.77;;;15.50;;
15667;SDS011;7934;48.710;9.024;2024-01-10T08:45:25;26.80;;;15.77;;
15667;SDS011;7934;48.710;9.024;2024-01-10T08:47:54;30.00;;;16.00;;
15667;SDS011;7934;48.710;9.024;2024-01-10T08:50:25;25.20;;;14.90;;
15667;SDS011;7934;48.710;9.024;2024-01-10T08:52:53;26.20;;;15.53;;
15667;SDS011;7934;48.710;9.024;2024-01-10T08:55:20;29.37;;;15.73;;
15667;SDS011;7934;48.710;9.024;2024-01-10T08:57:47;32.47;;;15.73;;
15667;SDS011;7934;48.710;9.024;2024-01-10T09:00:25;27.43;;;15.10;;
15667;SDS011;7934;48.710;9.024;2024-01-10T09:02:52;26.20;;;15.90;;
15667;SDS011;7934;48.710;9.024;2024-01-10T09:05:19;28.10;;;16.63;;
15667;SDS011;7934;48.710;9.024;2024-01-10T09:07:47;34.50;;;19.03;;
15667;SDS011;7934;48.710;9.024;2024-01-10T09:10:14;33.70;;;16.70;;
15667;SDS011;7934;48.710;9.024;2024-01-10T09:12:42;34.33;;;17.57;;
15667;SDS011;7934;48.710;9.024;2024-01-10T09:15:11;26.97;;;15.97;;
15667;SDS011;7934;48.710;9.024;2024-01-10T09:17:41;29.30;;;16.20;;
15667;SDS011;7934;48.710;9.024;2024-01-10T09:20:08;30.53;;;16.13;;
15667;SDS011;7934;48.710;9.024;2024-01-10T09:22:36;28.17;;;15.83;;
15667;SDS011;7934;48.710;9.024;2024-01-10T09:25:08;28.87;;;15.80;;
15667;SDS011;7934;48.710;9.024;2024-01-10T09:27:38;28.03;;;16.27;;
15667;SDS011;7934;48.710;9.024;2024-01-10T09:30:06;31.33;;;16.80;;
15667;SDS011;7934;48.710;9.024;2024-01-10T09:32:34;29.63;;;16.47;;
15667;SDS011;7934;48.710;9.024;2024-01-10T09:35:03;27.83;;;16.77;;
15667;SDS011;7934;48.710;9.024;2024-01-10T09:37:33;37.90;;;17.83;;
15667;SDS011;7934;48.710;9.024;2024-01-10T09:40:00;32.30;;;17.73;;
15667;SDS011;7934;48.710;9.024;2024-01-10T09:42:28;33.73;;;17.50;;
15667;SDS011;7934;48.710;9.024;2024-01-10T09:44:58;36.87;;;18.13;;
15667;SDS011;7934;48.710;9.024;2024-01-10T09:47:25;38.20;;;16.60;;
15667;SDS011;7934;48.710;9.024;2024-01-10T09:49:52;37.27;;;18.43;;
15667;SDS011;7934;48.710;9.024;2024-01-10T09:52:24;38.03;;;18.13;;
15667;SDS011;7934;48.710;9.024;2024-01-10T09:54:53;30.87;;;17.10;;
15667;SDS011;7934;48.710;9.024;2024-01-10T09:57:21;38.57;;;18.63;;
15667;SDS011;7934;48.710;9.024;2024-01-10T09:59:49;33.17;;;17.73;;
15667;SDS011;7934;48.710;9.024;2024-01-10T10:02:17;37.13;;;18.13;;
15667;SDS011;7934;48.710;9.024;2024-01-10T10:04:49;39.77;;;18.40;;
15667;SDS011;7934;48.710;9.024;2024-01-10T10:07:21;48.50;;;23.63;;
15667;SDS011;7934;48.710;9.024;2024-01-10T10:09:49;46.93;;;21.10;;
15667;SDS011;7934;48.710;9.024;2024-01-10T10:12:18;33.97;;;17.47;;
15667;SDS011;7934;48.710;9.024;2024-01-10T10:14:45;31.97;;;16.47;;
15667;SDS011;7934;48.710;9.024;2024-01-10T10:17:15;38.70;;;19.00;;
15667;SDS011;7934;48.710;9.024;2024-01-10T10:19:43;31.60;;;17.57;;
15667;SDS011;7934;48.710;9.024;2024-01-10T10:22:12;33.03;;;17.43;;
15667;SDS011;7934;48.710;9.024;2024-01-10T10:24:41;34.00;;;17.63;;
15667;SDS011;7934;48.710;9.024;2024-01-10T10:27:12;30.87;;;16.07;;
15667;SDS011;7934;48.710;9.024;2024-01-10T10:29:40;34.37;;;17.23;;
15667;SDS011;7934;48.710;9.024;2024-01-10T10:32:08;36.97;;;17.67;;
15667;SDS011;7934;48.710;9.024;2024-01-10T10:34:35;39.80;;;18.20;;
15667;SDS011;7934;48.710;9.024;2024-01-10T10:37:03;38.40;;;17.47;;
15667;SDS011;7934;48.710;9.024;2024-01-10T10:39:31;34.00;;;17.57;;
15667;SDS011;7934;48.710;9.024;2024-01-10T10:41:58;39.33;;;15.67;;
15667;SDS011;7934;48.710;9.024;2024-01-10T10:44:28;29.20;;;16.50;;
15667;SDS011;7934;48.710;9.024;2024-01-10T10:46:59;31.87;;;16.83;;
15667;SDS011;7934;48.710;9.024;2024-01-10T10:49:31;31.93;;;15.33;;
15667;SDS011;7934;48.710;9.024;2024-01-10T10:51:59;36.20;;;17.20;;
15667;SDS011;7934;48.710;9.024;2024-01-10T10:54:40;37.80;;;17.20;;
15667;SDS011;7934;48.710;9.024;2024-01-10T10:57:08;29.87;;;15.37;;
15667;SDS011;7934;48.710;9.024;2024-01-10T10:59:37;31.40;;;15.57;;
15667;SDS011;7934;48.710;9.024;2024-01-10T11:02:05;34.00;;;16.47;;
15667;SDS011;7934;48.710;9.024;2024-01-10T11:04:35;36.73;;;17.97;;
15667;SDS011;7934;48.710;9.024;2024-01-10T11:07:04;35.40;;;17.10;;
15667;SDS011;7934;48.710;9.024;2024-01-10T11:09:33;35.23;;;16.87;;
15667;SDS011;7934;48.710;9.024;2024-01-10T11:12:05;34.60;;;18.45;;
15667;SDS011;7934;48.710;9.024;2024-01-10T11:14:43;30.80;;;16.23;;
15667;SDS011;7934;48.710;9.024;2024-01-10T11:17:24;35.83;;;16.73;;
15667;SDS011;7934;48.710;9.024;2024-01-10T11:19:58;34.43;;;17.53;;
15667;SDS011;7934;48.710;9.024;2024-01-10T11:22:35;32.93;;;17.37;;
15667;SDS011;7934;48.710;9.024;2024-01-10T11:25:09;30.13;;;16.90;;
15667;SDS011;7934;48.710;9.024;2024-01-10T11:27:40;31.73;;;17.63;;
15667;SDS011;7934;48.710;9.024;2024-01-10T11:30:10;33.83;;;16.83;;
15667;SDS011;7934;48.710;9.024;2024-01-10T11:32:37;39.70;;;17.23;;
15667;SDS011;7934;48.710;9.024;2024-01-10T11:35:05;36.50;;;17.57;;
15667;SDS011;7934;48.710;9.024;2024-01-10T11:37:39;32.73;;;18.33;;
15667;SDS011;7934;48.710;9.024;2024-01-10T11:40:10;28.07;;;14.23;;
15667;SDS011;7934;48.710;9.024;2024-01-10T11:42:41;35.60;;;15.77;;
15667;SDS011;7934;48.710;9.024;2024-01-10T11:45:14;34.83;;;17.43;;
15667;SDS011;7934;48.710;9.024;2024-01-10T11:47:43;34.33;;;17.77;;
15667;SDS011;7934;48.710;9.024;2024-01-10T11:50:10;31.47;;;16.87;;
15667;SDS011;7934;48.710;9.024;2024-01-10T11:52:48;33.13;;;16.10;;
15667;SDS011;7934;48.710;9.024;2024-01-10T11:58:07;33.57;;;17.40;;
15667;SDS011;7934;48.710;9.024;2024-01-10T12:00:36;32.90;;;17.73;;
15667;SDS011;7934;48.710;9.024;2024-01-10T12:03:04;37.53;;;17.23;;
15667;SDS011;7934;48.710;9.024;2024-01-10T12:05:31;35.37;;;17.00;;
15667;SDS011;7934;48.710;9.024;2024-01-10T12:08:03;35.77;;;16.83;;
15667;SDS011;7934;48.710;9.024;2024-01-10T12:10:32;32.27;;;17.87;;
15667;SDS011;7934;48.710;9.024;2024-01-10T12:13:01;30.97;;;16.73;;
15667;SDS011;7934;48.710;9.024;2024-01-10T12:21:31;32.03;;;16.40;;
15667;SDS011;7934;48.710;9.024;2024-01-10T12:23:59;35.53;;;16.67;;
15667;SDS011;7934;48.710;9.024;2024-01-10T12:26:27;34.30;;;16.77;;
15667;SDS011;7934;48.710;9.024;2024-01-10T12:28:55;30.93;;;16.43;;
15667;SDS011;7934;48.710;9.024;2024-01-10T12:31:23;32.73;;;17.27;;
15667;SDS011;7934;48.710;9.024;2024-01-10T12:33:51;40.10;;;16.83;;
15667;SDS011;7934;48.710;9.024;2024-01-10T12:36:18;32.80;;;17.20;;
15667;SDS011;7934;48.710;9.024;2024-01-10T12:38:48;32.13;;;17.17;;
15667;SDS011;7934;48.710;9.024;2024-01-10T12:41:16;35.90;;;17.07;;
15667;SDS011;7934;48.710;9.024;2024-01-10T12:43:48;30.57;;;18.10;;
15667;SDS011;7934;48.710;9.024;2024-01-10T12:46:16;35.87;;;16.67;;
15667;SDS011;7934;48.710;9.024;2024-01-10T12:48:57;30.47;;;16.50;;
15667;SDS011;7934;48.710;9.024;2024-01-10T12:51:32;43.77;;;18.20;;
15667;SDS011;7934;48.710;9.024;2024-01-10T12:54:02;35.57;;;16.23;;
15667;SDS011;7934;48.710;9.024;2024-01-10T12:56:30;24.97;;;14.73;;
15667;SDS011;7934;48.710;9.024;2024-01-10T12:58:58;26.93;;;15.53;;
15667;SDS011;7934;48.710;9.024;2024-01-10T13:01:25;33.83;;;16.47;;
15667;SDS011;7934;48.710;9.024;2024-01-10T13:03:52;35.30;;;16.43;;
15667;SDS011;7934;48.710;9.024;2024-01-10T13:06:21;26.20;;;15.33;;
15667;SDS011;7934;48.710;9.024;2024-01-10T13:08:49;30.93;;;15.30;;
15667;SDS011;7934;48.710;9.024;2024-01-10T13:11:17;25.90;;;13.67;;
15667;SDS011;7934;48.710;9.024;2024-01-10T13:13:46;24.43;;;14.27;;
15667;SDS011;7934;48.710;9.024;2024-01-10T13:16:15;26.10;;;15.60;;
15667;SDS011;7934;48.710;9.024;2024-01-10T13:18:46;27.30;;;15.23;;
15667;SDS011;7934;48.710;9.024;2024-01-10T13:21:13;29.20;;;14.83;;
15667;SDS011;7934;48.710;9.024;2024-01-10T13:23:40;31.00;;;16.13;;
15667;SDS011;7934;48.710;9.024;2024-01-10T13:26:08;29.57;;;14.80;;
15667;SDS011;7934;48.710;9.024;2024-01-10T13:28:37;28.47;;;15.80;;
15667;SDS011;7934;48.710;9.024;2024-01-10T13:31:05;28.03;;;15.20;;
15667;SDS011;7934;48.710;9.024;2024-01-10T13:33:34;32.07;;;14.97;;
15667;SDS011;7934;48.710;9.024;2024-01-10T13:36:02;24.90;;;14.30;;
15667;SDS011;7934;48.710;9.024;2024-01-10T13:38:30;28.57;;;15.73;;
15667;SDS011;7934;48.710;9.024;2024-01-10T13:40:58;29.10;;;15.60;;
15667;SDS011;7934;48.710;9.024;2024-01-10T13:43:26;26.65;;;15.60;;
15667;SDS011;7934;48.710;9.024;2024-01-10T13:45:55;27.17;;;17.50;;
15667;SDS011;7934;48.710;9.024;2024-01-10T13:48:22;27.10;;;14.80;;
15667;SDS011;7934;48.710;9.024;2024-01-10T13:50:50;25.30;;;14.10;;
15667;SDS011;7934;48.710;9.024;2024-01-10T13:53:17;26.33;;;14.53;;
15667;SDS011;7934;48.710;9.024;2024-01-10T13:55:44;25.47;;;15.00;;
15667;SDS011;7934;48.710;9.024;2024-01-10T13:58:12;28.20;;;18.27;;
15667;SDS011;7934;48.710;9.024;2024-01-10T14:00:39;25.33;;;15.87;;
15667;SDS011;7934;48.710;9.024;2024-01-10T14:03:09;28.47;;;16.60;;
15667;SDS011;7934;48.710;9.024;2024-01-10T14:05:36;28.57;;;16.17;;
15667;SDS011;7934;48.710;9.024;2024-01-10T14:08:04;28.17;;;16.23;;
15667;SDS011;7934;48.710;9.024;2024-01-10T14:10:32;25.47;;;15.07;;
15667;SDS011;7934;48.710;9.024;2024-01-10T14:13:00;33.93;;;16.50;;
15667;SDS011;7934;48.710;9.024;2024-01-10T14:15:28;28.40;;;15.93;;
15667;SDS011;7934;48.710;9.024;2024-01-10T14:17:55;28.20;;;16.67;;
15667;SDS011;7934;48.710;9.024;2024-01-10T14:20:24;26.20;;;15.67;;
15667;SDS011;7934;48.710;9.024;2024-01-10T14:22:51;29.40;;;15.97;;
15667;SDS011;7934;48.710;9.024;2024-01-10T14:25:18;30.17;;;14.97;;
15667;SDS011;7934;48.710;9.024;2024-01-10T14:27:46;29.60;;;16.07;;
15667;SDS011;7934;48.710;9.024;2024-01-10T14:30:13;27.33;;;15.57;;
15667;SDS011;7934;48.710;9.024;2024-01-10T14:32:41;28.67;;;15.47;;
15667;SDS011;7934;48.710;9.024;2024-01-10T14:35:12;28.10;;;17.40;;
15667;SDS011;7934;48.710;9.024;2024-01-10T14:37:43;31.57;;;18.00;;
15667;SDS011;7934;48.710;9.024;2024-01-10T14:40:10;34.47;;;19.53;;
15667;SDS011;7934;48.710;9.024;2024-01-10T14:42:37;36.60;;;19.57;;
15667;SDS011;7934;48.710;9.024;2024-01-10T14:45:05;34.03;;;19.20;;
15667;SDS011;7934;48.710;9.024;2024-01-10T14:47:33;33.37;;;20.10;;
15667;SDS011;7934;48.710;9.024;2024-01-10T14:50:01;39.83;;;18.73;;
15667;SDS011;7934;48.710;9.024;2024-01-10T14:52:29;37.00;;;20.40;;
15667;SDS011;7934;48.710;9.024;2024-01-10T14:55:00;38.87;;;21.07;;
15667;SDS011;7934;48.710;9.024;2024-01-10T14:57:43;38.00;;;20.23;;
15667;SDS011;7934;48.710;9.024;2024-01-10T15:00:12;40.27;;;20.37;;
15667;SDS011;7934;48.710;9.024;2024-01-10T15:02:41;36.13;;;19.60;;
15667;SDS011;7934;48.710;9.024;2024-01-10T15:05:11;37.33;;;20.87;;
15667;SDS011;7934;48.710;9.024;2024-01-10T15:07:54;41.93;;;20.30;;
15667;SDS011;7934;48.710;9.024;2024-01-10T15:10:27;37.27;;;19.90;;
15667;SDS011;7934;48.710;9.024;2024-01-10T15:13:08;37.70;;;20.73;;
15667;SDS011;7934;48.710;9.024;2024-01-10T15:15:37;40.20;;;21.03;;